Nibulon 2 — UUAT3 — position and weather

sailwx.info

Track history (hours):
 
Tides and Currents Weather Stations Pressure Air Temp Water Temp Dewpoint Dewpoint Depression Visibility Wind Speed Wind Dir Waves Ship Positions

Nibulon 2

Last reported at 2018-Feb-18 09:41 UTC. Time now 2018-Feb-18 22:02 UTC.
Position N 46°35' E 031°33'.

Length 38 m; draft 2.6 m.

Type: Towing. MMSI: 272651000.

Date/timePositionNaut miles runAvg speedWind from/ knotsBaromVisibWave heightAir tempDewpointWater temp
2018-Feb-18 09:41N 46°35' E 031°33'2 4.6
2018-Feb-18 09:20N 46°36' E 031°35'1 1.5
2018-Feb-18 08:46N 46°37' E 031°35'1 2.3
2018-Feb-18 08:26N 46°36' E 031°34'4 4.1
2018-Feb-18 07:36N 46°36' E 031°29'1 5.4
2018-Feb-18 07:29N 46°36' E 031°28'3 5.5
2018-Feb-18 07:00N 46°35' E 031°25'6 5.6
2018-Feb-18 05:54N 46°34' E 031°16'6 1.0
2018-Feb-18 00:21N 46°35' E 031°24'2 5.2
2018-Feb-17 23:58N 46°35' E 031°27'3 4.4
2018-Feb-17 23:11N 46°35' E 031°32'1 4.2
2018-Feb-17 22:57N 46°35' E 031°33'2 4.3
2018-Feb-17 22:31N 46°36' E 031°35'0 0.4
2018-Feb-17 22:00N 46°36' E 031°35'0 0.2
2018-Feb-17 21:30N 46°36' E 031°35'1 2.7
2018-Feb-17 20:59N 46°36' E 031°37'2 3.8
2018-Feb-17 20:22N 46°36' E 031°41'1 3.6
2018-Feb-17 20:00N 46°35' E 031°42'2 3.6
2018-Feb-17 19:30N 46°36' E 031°45'2 3.6
2018-Feb-17 18:58N 46°35' E 031°48'2 3.5
2018-Feb-17 18:29N 46°35' E 031°50'2 4.1
2018-Feb-17 18:00N 46°34' E 031°53'2 3.4
2018-Feb-17 17:30N 46°34' E 031°55'2 3.4
2018-Feb-17 17:00N 46°33' E 031°58'2 3.4
2018-Feb-17 16:30N 46°33' E 032°00'2 3.5
2018-Feb-17 16:00N 46°32' E 032°03'2 3.4
2018-Feb-17 15:25N 46°32' E 032°05'2 3.9
2018-Feb-17 14:54N 46°32' E 032°08'  
2018-Feb-11 21:55N 46°32' E 032°08'2 4.6
2018-Feb-11 21:28N 46°32' E 032°05'2 4.5
2018-Feb-11 21:00N 46°32' E 032°02'2 4.7
2018-Feb-11 20:30N 46°33' E 031°59'2 4.6
2018-Feb-11 20:00N 46°34' E 031°56'2 4.8
2018-Feb-11 19:30N 46°35' E 031°53'2 4.8
2018-Feb-11 19:00N 46°35' E 031°49'2 5.1
2018-Feb-11 18:30N 46°35' E 031°46'3 5.2
2018-Feb-11 18:00N 46°35' E 031°42'2 4.6
2018-Feb-11 17:30N 46°35' E 031°38'3 4.1
2018-Feb-11 16:51N 46°36' E 031°35'13 1.0
2018-Feb-11 03:45N 46°34' E 031°16'  
2018-Feb-08 15:00N 46°37' E 031°52'4 4.1
2018-Feb-08 14:00N 46°40' E 031°56'2 4.9
2018-Feb-08 13:30N 46°42' E 031°56'4 4.4
2018-Feb-08 12:30N 46°46' E 031°53'5 5.1
2018-Feb-08 11:30N 46°51' E 031°57'3 5.6
2018-Feb-08 11:00N 46°53' E 031°59'  
Track history (hours):
 
Tides and Currents Weather Stations Pressure Air Temp Water Temp Dewpoint Dewpoint Depression Visibility Wind Speed Wind Dir Waves Ship Positions

Nibulon 2

Last reported at 2018-Feb-18 09:41 UTC. Time now 2018-Feb-18 22:02 UTC.
Position N 46°35' E 031°33'.

Length 38 m; draft 2.6 m.

Type: Towing. MMSI: 272651000.

Date/timePositionNaut miles runAvg speedWind from/ knotsBaromVisibWave heightAir tempDewpointWater temp
2018-Feb-18 09:41N 46°35' E 031°33'2 4.6
2018-Feb-18 09:20N 46°36' E 031°35'1 1.5
2018-Feb-18 08:46N 46°37' E 031°35'1 2.3
2018-Feb-18 08:26N 46°36' E 031°34'4 4.1
2018-Feb-18 07:36N 46°36' E 031°29'1 5.4
2018-Feb-18 07:29N 46°36' E 031°28'3 5.5
2018-Feb-18 07:00N 46°35' E 031°25'6 5.6
2018-Feb-18 05:54N 46°34' E 031°16'6 1.0
2018-Feb-18 00:21N 46°35' E 031°24'2 5.2
2018-Feb-17 23:58N 46°35' E 031°27'3 4.4
2018-Feb-17 23:11N 46°35' E 031°32'1 4.2
2018-Feb-17 22:57N 46°35' E 031°33'2 4.3
2018-Feb-17 22:31N 46°36' E 031°35'0 0.4
2018-Feb-17 22:00N 46°36' E 031°35'0 0.2
2018-Feb-17 21:30N 46°36' E 031°35'1 2.7
2018-Feb-17 20:59N 46°36' E 031°37'2 3.8
2018-Feb-17 20:22N 46°36' E 031°41'1 3.6
2018-Feb-17 20:00N 46°35' E 031°42'2 3.6
2018-Feb-17 19:30N 46°36' E 031°45'2 3.6
2018-Feb-17 18:58N 46°35' E 031°48'2 3.5
2018-Feb-17 18:29N 46°35' E 031°50'2 4.1
2018-Feb-17 18:00N 46°34' E 031°53'2 3.4
2018-Feb-17 17:30N 46°34' E 031°55'2 3.4
2018-Feb-17 17:00N 46°33' E 031°58'2 3.4
2018-Feb-17 16:30N 46°33' E 032°00'2 3.5
2018-Feb-17 16:00N 46°32' E 032°03'2 3.4
2018-Feb-17 15:25N 46°32' E 032°05'2 3.9
2018-Feb-17 14:54N 46°32' E 032°08'  
2018-Feb-11 21:55N 46°32' E 032°08'2 4.6
2018-Feb-11 21:28N 46°32' E 032°05'2 4.5
2018-Feb-11 21:00N 46°32' E 032°02'2 4.7
2018-Feb-11 20:30N 46°33' E 031°59'2 4.6
2018-Feb-11 20:00N 46°34' E 031°56'2 4.8
2018-Feb-11 19:30N 46°35' E 031°53'2 4.8
2018-Feb-11 19:00N 46°35' E 031°49'2 5.1
2018-Feb-11 18:30N 46°35' E 031°46'3 5.2
2018-Feb-11 18:00N 46°35' E 031°42'2 4.6
2018-Feb-11 17:30N 46°35' E 031°38'3 4.1
2018-Feb-11 16:51N 46°36' E 031°35'13 1.0
2018-Feb-11 03:45N 46°34' E 031°16'  
2018-Feb-08 15:00N 46°37' E 031°52'4 4.1
2018-Feb-08 14:00N 46°40' E 031°56'2 4.9
2018-Feb-08 13:30N 46°42' E 031°56'4 4.4
2018-Feb-08 12:30N 46°46' E 031°53'5 5.1
2018-Feb-08 11:30N 46°51' E 031°57'3 5.6
2018-Feb-08 11:00N 46°53' E 031°59'  

Dump ship's entire track history